sensor_id;sensor_type;location;lat;lon;timestamp;P1;durP1;ratioP1;P2;durP2;ratioP2
26080;SDS011;13991;51.174;4.438;2022-09-13T00:00:40;8.13;;;2.40;;
26080;SDS011;13991;51.174;4.438;2022-09-13T00:03:07;15.27;;;3.10;;
26080;SDS011;13991;51.174;4.438;2022-09-13T00:05:34;12.43;;;2.67;;
26080;SDS011;13991;51.174;4.438;2022-09-13T00:08:01;10.30;;;3.20;;
26080;SDS011;13991;51.174;4.438;2022-09-13T00:10:27;12.67;;;3.40;;
26080;SDS011;13991;51.174;4.438;2022-09-13T00:12:53;9.00;;;3.33;;
26080;SDS011;13991;51.174;4.438;2022-09-13T00:15:19;14.57;;;3.37;;
26080;SDS011;13991;51.174;4.438;2022-09-13T00:17:45;8.47;;;2.73;;
26080;SDS011;13991;51.174;4.438;2022-09-13T00:20:11;5.37;;;2.33;;
26080;SDS011;13991;51.174;4.438;2022-09-13T00:22:37;3.97;;;2.13;;
26080;SDS011;13991;51.174;4.438;2022-09-13T00:25:03;16.70;;;3.13;;
26080;SDS011;13991;51.174;4.438;2022-09-13T00:27:34;4.70;;;2.40;;
26080;SDS011;13991;51.174;4.438;2022-09-13T00:30:00;10.53;;;2.47;;
26080;SDS011;13991;51.174;4.438;2022-09-13T00:32:27;8.30;;;3.07;;
26080;SDS011;13991;51.174;4.438;2022-09-13T00:34:53;18.83;;;3.37;;
26080;SDS011;13991;51.174;4.438;2022-09-13T00:37:19;4.47;;;2.30;;
26080;SDS011;13991;51.174;4.438;2022-09-13T00:39:44;10.43;;;2.90;;
26080;SDS011;13991;51.174;4.438;2022-09-13T00:42:13;12.50;;;2.27;;
26080;SDS011;13991;51.174;4.438;2022-09-13T00:53:12;9.83;;;2.70;;
26080;SDS011;13991;51.174;4.438;2022-09-13T00:58:11;19.10;;;3.30;;
26080;SDS011;13991;51.174;4.438;2022-09-13T01:00:40;9.07;;;3.07;;
26080;SDS011;13991;51.174;4.438;2022-09-13T01:03:08;15.93;;;2.83;;
26080;SDS011;13991;51.174;4.438;2022-09-13T01:05:46;20.77;;;3.97;;
26080;SDS011;13991;51.174;4.438;2022-09-13T01:08:17;19.23;;;3.50;;
26080;SDS011;13991;51.174;4.438;2022-09-13T01:10:47;12.30;;;3.37;;
26080;SDS011;13991;51.174;4.438;2022-09-13T01:13:18;20.43;;;3.47;;
26080;SDS011;13991;51.174;4.438;2022-09-13T01:15:47;15.37;;;3.53;;
26080;SDS011;13991;51.174;4.438;2022-09-13T01:18:13;11.50;;;2.90;;
26080;SDS011;13991;51.174;4.438;2022-09-13T01:29:35;11.60;;;2.77;;
26080;SDS011;13991;51.174;4.438;2022-09-13T01:51:41;13.83;;;2.50;;
26080;SDS011;13991;51.174;4.438;2022-09-13T01:57:28;10.53;;;2.03;;
26080;SDS011;13991;51.174;4.438;2022-09-13T02:00:03;15.50;;;2.00;;
26080;SDS011;13991;51.174;4.438;2022-09-13T02:02:46;10.33;;;2.23;;
26080;SDS011;13991;51.174;4.438;2022-09-13T02:08:09;5.13;;;2.20;;
26080;SDS011;13991;51.174;4.438;2022-09-13T02:10:49;10.13;;;1.87;;
26080;SDS011;13991;51.174;4.438;2022-09-13T02:13:23;6.93;;;1.60;;
26080;SDS011;13991;51.174;4.438;2022-09-13T02:15:53;6.27;;;2.40;;
26080;SDS011;13991;51.174;4.438;2022-09-13T02:18:25;7.10;;;1.80;;
26080;SDS011;13991;51.174;4.438;2022-09-13T02:20:58;6.77;;;1.93;;
26080;SDS011;13991;51.174;4.438;2022-09-13T02:23:31;13.47;;;2.43;;
26080;SDS011;13991;51.174;4.438;2022-09-13T02:26:05;13.03;;;2.13;;
26080;SDS011;13991;51.174;4.438;2022-09-13T02:28:36;17.83;;;2.30;;
26080;SDS011;13991;51.174;4.438;2022-09-13T02:31:08;16.37;;;2.20;;
26080;SDS011;13991;51.174;4.438;2022-09-13T02:33:36;8.10;;;1.83;;
26080;SDS011;13991;51.174;4.438;2022-09-13T02:36:13;12.77;;;2.50;;
26080;SDS011;13991;51.174;4.438;2022-09-13T02:38:51;13.37;;;2.53;;
26080;SDS011;13991;51.174;4.438;2022-09-13T02:41:26;6.47;;;2.07;;
26080;SDS011;13991;51.174;4.438;2022-09-13T02:44:16;9.80;;;3.03;;
26080;SDS011;13991;51.174;4.438;2022-09-13T02:49:25;20.03;;;2.63;;
26080;SDS011;13991;51.174;4.438;2022-09-13T02:54:42;7.67;;;2.40;;
26080;SDS011;13991;51.174;4.438;2022-09-13T02:57:14;7.07;;;2.33;;
26080;SDS011;13991;51.174;4.438;2022-09-13T02:59:59;4.80;;;2.00;;
26080;SDS011;13991;51.174;4.438;2022-09-13T03:02:30;14.43;;;2.50;;
26080;SDS011;13991;51.174;4.438;2022-09-13T03:04:58;11.93;;;2.63;;
26080;SDS011;13991;51.174;4.438;2022-09-13T03:07:27;14.07;;;2.60;;
26080;SDS011;13991;51.174;4.438;2022-09-13T03:09:57;8.67;;;2.83;;
26080;SDS011;13991;51.174;4.438;2022-09-13T03:18:40;13.17;;;3.70;;
26080;SDS011;13991;51.174;4.438;2022-09-13T03:21:10;14.43;;;2.80;;
26080;SDS011;13991;51.174;4.438;2022-09-13T03:24:21;15.43;;;3.03;;
26080;SDS011;13991;51.174;4.438;2022-09-13T03:27:01;13.37;;;2.70;;
26080;SDS011;13991;51.174;4.438;2022-09-13T03:32:47;13.10;;;3.23;;
26080;SDS011;13991;51.174;4.438;2022-09-13T03:35:41;16.83;;;2.87;;
26080;SDS011;13991;51.174;4.438;2022-09-13T03:38:24;8.83;;;2.53;;
26080;SDS011;13991;51.174;4.438;2022-09-13T03:41:06;10.67;;;2.83;;
26080;SDS011;13991;51.174;4.438;2022-09-13T03:43:48;10.93;;;2.73;;
26080;SDS011;13991;51.174;4.438;2022-09-13T03:46:19;8.30;;;2.20;;
26080;SDS011;13991;51.174;4.438;2022-09-13T03:48:51;7.53;;;1.83;;
26080;SDS011;13991;51.174;4.438;2022-09-13T03:51:18;12.10;;;2.87;;
26080;SDS011;13991;51.174;4.438;2022-09-13T03:53:52;8.90;;;3.07;;
26080;SDS011;13991;51.174;4.438;2022-09-13T03:56:22;11.57;;;2.73;;
26080;SDS011;13991;51.174;4.438;2022-09-13T03:58:48;9.97;;;2.70;;
26080;SDS011;13991;51.174;4.438;2022-09-13T04:01:18;7.43;;;2.73;;
26080;SDS011;13991;51.174;4.438;2022-09-13T04:03:46;11.20;;;2.40;;
26080;SDS011;13991;51.174;4.438;2022-09-13T04:06:11;9.07;;;2.17;;
26080;SDS011;13991;51.174;4.438;2022-09-13T04:08:38;7.37;;;2.67;;
26080;SDS011;13991;51.174;4.438;2022-09-13T04:11:04;9.20;;;2.70;;
26080;SDS011;13991;51.174;4.438;2022-09-13T04:13:30;11.50;;;2.63;;
26080;SDS011;13991;51.174;4.438;2022-09-13T04:16:02;8.53;;;2.80;;
26080;SDS011;13991;51.174;4.438;2022-09-13T04:18:29;12.23;;;3.57;;
26080;SDS011;13991;51.174;4.438;2022-09-13T04:20:56;5.83;;;2.80;;
26080;SDS011;13991;51.174;4.438;2022-09-13T04:23:23;4.40;;;2.47;;
26080;SDS011;13991;51.174;4.438;2022-09-13T04:25:50;10.00;;;2.90;;
26080;SDS011;13991;51.174;4.438;2022-09-13T04:28:17;16.17;;;3.20;;
26080;SDS011;13991;51.174;4.438;2022-09-13T04:30:43;13.17;;;2.97;;
26080;SDS011;13991;51.174;4.438;2022-09-13T04:33:10;9.90;;;2.90;;
26080;SDS011;13991;51.174;4.438;2022-09-13T04:35:36;8.03;;;2.43;;
26080;SDS011;13991;51.174;4.438;2022-09-13T04:38:03;8.33;;;3.13;;
26080;SDS011;13991;51.174;4.438;2022-09-13T04:40:33;9.90;;;3.33;;
26080;SDS011;13991;51.174;4.438;2022-09-13T04:43:02;6.17;;;3.00;;
26080;SDS011;13991;51.174;4.438;2022-09-13T04:45:28;7.27;;;2.87;;
26080;SDS011;13991;51.174;4.438;2022-09-13T04:47:54;8.60;;;2.60;;
26080;SDS011;13991;51.174;4.438;2022-09-13T04:50:20;8.70;;;3.13;;
26080;SDS011;13991;51.174;4.438;2022-09-13T04:52:47;6.17;;;2.47;;
26080;SDS011;13991;51.174;4.438;2022-09-13T04:55:13;11.33;;;3.70;;
26080;SDS011;13991;51.174;4.438;2022-09-13T04:57:39;11.53;;;2.40;;
26080;SDS011;13991;51.174;4.438;2022-09-13T05:00:06;8.60;;;3.67;;
26080;SDS011;13991;51.174;4.438;2022-09-13T05:02:32;13.23;;;2.67;;
26080;SDS011;13991;51.174;4.438;2022-09-13T05:04:58;13.60;;;3.17;;
26080;SDS011;13991;51.174;4.438;2022-09-13T05:07:24;8.23;;;3.20;;
26080;SDS011;13991;51.174;4.438;2022-09-13T05:09:49;15.33;;;3.80;;
26080;SDS011;13991;51.174;4.438;2022-09-13T05:12:15;5.43;;;2.53;;
26080;SDS011;13991;51.174;4.438;2022-09-13T05:14:41;10.27;;;3.10;;
26080;SDS011;13991;51.174;4.438;2022-09-13T05:17:07;7.80;;;3.17;;
26080;SDS011;13991;51.174;4.438;2022-09-13T05:19:32;6.03;;;2.17;;
26080;SDS011;13991;51.174;4.438;2022-09-13T05:21:59;5.47;;;2.97;;
26080;SDS011;13991;51.174;4.438;2022-09-13T05:24:25;11.40;;;3.10;;
26080;SDS011;13991;51.174;4.438;2022-09-13T05:26:51;8.27;;;3.07;;
26080;SDS011;13991;51.174;4.438;2022-09-13T05:29:17;8.40;;;2.97;;
26080;SDS011;13991;51.174;4.438;2022-09-13T05:31:43;10.97;;;2.97;;
26080;SDS011;13991;51.174;4.438;2022-09-13T05:34:09;13.77;;;3.63;;
26080;SDS011;13991;51.174;4.438;2022-09-13T05:36:37;11.80;;;3.70;;
26080;SDS011;13991;51.174;4.438;2022-09-13T05:39:03;13.07;;;3.50;;
26080;SDS011;13991;51.174;4.438;2022-09-13T05:41:29;14.20;;;3.90;;
26080;SDS011;13991;51.174;4.438;2022-09-13T05:43:56;24.20;;;3.90;;
26080;SDS011;13991;51.174;4.438;2022-09-13T05:46:22;20.10;;;4.27;;
26080;SDS011;13991;51.174;4.438;2022-09-13T05:48:47;12.20;;;4.03;;
26080;SDS011;13991;51.174;4.438;2022-09-13T05:51:17;15.53;;;3.80;;
26080;SDS011;13991;51.174;4.438;2022-09-13T05:53:46;14.47;;;3.37;;
26080;SDS011;13991;51.174;4.438;2022-09-13T05:56:14;13.37;;;3.63;;
26080;SDS011;13991;51.174;4.438;2022-09-13T05:58:46;11.40;;;3.50;;
26080;SDS011;13991;51.174;4.438;2022-09-13T06:01:12;9.57;;;3.50;;
26080;SDS011;13991;51.174;4.438;2022-09-13T06:03:40;7.47;;;3.33;;
26080;SDS011;13991;51.174;4.438;2022-09-13T06:06:06;14.57;;;3.37;;
26080;SDS011;13991;51.174;4.438;2022-09-13T06:08:32;13.67;;;3.63;;
26080;SDS011;13991;51.174;4.438;2022-09-13T06:11:00;13.40;;;3.70;;
26080;SDS011;13991;51.174;4.438;2022-09-13T06:13:28;11.50;;;3.93;;
26080;SDS011;13991;51.174;4.438;2022-09-13T06:15:54;15.60;;;4.13;;
26080;SDS011;13991;51.174;4.438;2022-09-13T06:18:22;16.43;;;4.30;;
26080;SDS011;13991;51.174;4.438;2022-09-13T06:20:48;13.57;;;3.73;;
26080;SDS011;13991;51.174;4.438;2022-09-13T06:23:15;14.43;;;4.13;;
26080;SDS011;13991;51.174;4.438;2022-09-13T06:25:41;18.33;;;4.83;;
26080;SDS011;13991;51.174;4.438;2022-09-13T06:28:08;21.40;;;4.20;;
26080;SDS011;13991;51.174;4.438;2022-09-13T06:30:34;10.77;;;3.70;;
26080;SDS011;13991;51.174;4.438;2022-09-13T06:33:00;23.97;;;4.07;;
26080;SDS011;13991;51.174;4.438;2022-09-13T06:35:26;14.93;;;3.77;;
26080;SDS011;13991;51.174;4.438;2022-09-13T06:37:55;14.80;;;4.07;;
26080;SDS011;13991;51.174;4.438;2022-09-13T06:40:22;31.80;;;5.20;;
26080;SDS011;13991;51.174;4.438;2022-09-13T06:42:48;19.17;;;4.87;;
26080;SDS011;13991;51.174;4.438;2022-09-13T06:45:14;25.63;;;5.57;;
26080;SDS011;13991;51.174;4.438;2022-09-13T06:47:40;38.40;;;6.13;;
26080;SDS011;13991;51.174;4.438;2022-09-13T06:50:06;19.03;;;7.13;;
26080;SDS011;13991;51.174;4.438;2022-09-13T06:52:37;24.30;;;6.57;;
26080;SDS011;13991;51.174;4.438;2022-09-13T06:55:04;25.00;;;6.17;;
26080;SDS011;13991;51.174;4.438;2022-09-13T06:57:33;28.50;;;7.57;;
26080;SDS011;13991;51.174;4.438;2022-09-13T06:59:58;21.00;;;6.60;;
26080;SDS011;13991;51.174;4.438;2022-09-13T07:02:28;25.93;;;5.33;;
26080;SDS011;13991;51.174;4.438;2022-09-13T07:04:54;20.00;;;6.23;;
26080;SDS011;13991;51.174;4.438;2022-09-13T07:07:22;13.43;;;6.10;;
26080;SDS011;13991;51.174;4.438;2022-09-13T07:09:48;14.73;;;6.10;;
26080;SDS011;13991;51.174;4.438;2022-09-13T07:12:16;23.30;;;5.87;;
26080;SDS011;13991;51.174;4.438;2022-09-13T07:14:42;15.73;;;5.80;;
26080;SDS011;13991;51.174;4.438;2022-09-13T07:17:07;17.23;;;5.40;;
26080;SDS011;13991;51.174;4.438;2022-09-13T07:19:35;17.40;;;5.50;;
26080;SDS011;13991;51.174;4.438;2022-09-13T07:22:01;32.87;;;6.87;;
26080;SDS011;13991;51.174;4.438;2022-09-13T07:24:29;18.80;;;4.80;;
26080;SDS011;13991;51.174;4.438;2022-09-13T07:26:55;38.47;;;6.33;;
26080;SDS011;13991;51.174;4.438;2022-09-13T07:29:21;16.53;;;5.90;;
26080;SDS011;13991;51.174;4.438;2022-09-13T07:31:50;16.37;;;5.53;;
26080;SDS011;13991;51.174;4.438;2022-09-13T07:34:19;15.30;;;5.37;;
26080;SDS011;13991;51.174;4.438;2022-09-13T07:36:46;18.70;;;6.30;;
26080;SDS011;13991;51.174;4.438;2022-09-13T07:39:15;26.53;;;6.67;;
26080;SDS011;13991;51.174;4.438;2022-09-13T07:41:42;16.37;;;6.13;;
26080;SDS011;13991;51.174;4.438;2022-09-13T07:44:12;21.20;;;6.03;;
26080;SDS011;13991;51.174;4.438;2022-09-13T07:46:38;40.73;;;6.57;;
26080;SDS011;13991;51.174;4.438;2022-09-13T07:49:05;25.57;;;6.20;;
26080;SDS011;13991;51.174;4.438;2022-09-13T07:51:33;15.20;;;6.10;;
26080;SDS011;13991;51.174;4.438;2022-09-13T07:54:01;31.13;;;7.53;;
26080;SDS011;13991;51.174;4.438;2022-09-13T07:56:31;20.77;;;7.50;;
26080;SDS011;13991;51.174;4.438;2022-09-13T07:59:02;27.07;;;8.17;;
26080;SDS011;13991;51.174;4.438;2022-09-13T08:01:38;24.97;;;7.07;;
26080;SDS011;13991;51.174;4.438;2022-09-13T08:04:15;21.90;;;7.90;;
26080;SDS011;13991;51.174;4.438;2022-09-13T08:06:42;15.53;;;7.87;;
26080;SDS011;13991;51.174;4.438;2022-09-13T08:09:09;26.13;;;7.50;;
26080;SDS011;13991;51.174;4.438;2022-09-13T08:11:39;21.50;;;7.00;;
26080;SDS011;13991;51.174;4.438;2022-09-13T08:14:10;21.57;;;6.73;;
26080;SDS011;13991;51.174;4.438;2022-09-13T08:16:37;33.03;;;8.33;;
26080;SDS011;13991;51.174;4.438;2022-09-13T08:19:06;22.80;;;8.13;;
26080;SDS011;13991;51.174;4.438;2022-09-13T08:21:35;30.20;;;9.00;;
26080;SDS011;13991;51.174;4.438;2022-09-13T08:24:03;22.97;;;9.20;;
26080;SDS011;13991;51.174;4.438;2022-09-13T08:26:31;42.77;;;8.07;;
26080;SDS011;13991;51.174;4.438;2022-09-13T08:28:59;26.07;;;8.90;;
26080;SDS011;13991;51.174;4.438;2022-09-13T08:31:26;33.37;;;9.03;;
26080;SDS011;13991;51.174;4.438;2022-09-13T08:33:52;32.67;;;9.37;;
26080;SDS011;13991;51.174;4.438;2022-09-13T08:36:19;32.77;;;10.00;;
26080;SDS011;13991;51.174;4.438;2022-09-13T08:38:48;32.83;;;10.53;;
26080;SDS011;13991;51.174;4.438;2022-09-13T08:43:56;23.33;;;9.10;;
26080;SDS011;13991;51.174;4.438;2022-09-13T08:46:42;31.47;;;9.57;;
26080;SDS011;13991;51.174;4.438;2022-09-13T08:49:14;32.20;;;9.47;;
26080;SDS011;13991;51.174;4.438;2022-09-13T08:52:13;28.87;;;9.80;;
26080;SDS011;13991;51.174;4.438;2022-09-13T08:55:00;33.30;;;8.50;;
26080;SDS011;13991;51.174;4.438;2022-09-13T08:57:31;28.90;;;8.00;;
26080;SDS011;13991;51.174;4.438;2022-09-13T09:02:45;24.87;;;7.20;;
26080;SDS011;13991;51.174;4.438;2022-09-13T09:07:44;20.13;;;7.70;;
26080;SDS011;13991;51.174;4.438;2022-09-13T09:10:13;26.33;;;9.03;;
26080;SDS011;13991;51.174;4.438;2022-09-13T09:15:28;23.37;;;8.20;;
26080;SDS011;13991;51.174;4.438;2022-09-13T09:18:05;24.43;;;7.97;;
26080;SDS011;13991;51.174;4.438;2022-09-13T09:20:45;16.23;;;6.25;;
26080;SDS011;13991;51.174;4.438;2022-09-13T09:23:15;20.00;;;7.40;;
26080;SDS011;13991;51.174;4.438;2022-09-13T09:25:42;31.25;;;7.82;;
26080;SDS011;13991;51.174;4.438;2022-09-13T09:28:13;19.47;;;6.87;;
26080;SDS011;13991;51.174;4.438;2022-09-13T09:38:41;14.88;;;5.60;;
26080;SDS011;13991;51.174;4.438;2022-09-13T09:43:49;14.27;;;4.97;;
26080;SDS011;13991;51.174;4.438;2022-09-13T09:46:29;11.82;;;4.53;;
26080;SDS011;13991;51.174;4.438;2022-09-13T09:49:01;13.48;;;4.80;;
26080;SDS011;13991;51.174;4.438;2022-09-13T09:52:09;9.45;;;4.30;;
26080;SDS011;13991;51.174;4.438;2022-09-13T09:54:38;11.45;;;4.50;;
26080;SDS011;13991;51.174;4.438;2022-09-13T09:57:05;18.70;;;5.07;;
26080;SDS011;13991;51.174;4.438;2022-09-13T09:59:32;16.92;;;4.72;;
26080;SDS011;13991;51.174;4.438;2022-09-13T10:01:59;14.25;;;4.63;;
26080;SDS011;13991;51.174;4.438;2022-09-13T10:04:28;15.88;;;5.05;;
26080;SDS011;13991;51.174;4.438;2022-09-13T10:09:57;17.50;;;4.53;;
26080;SDS011;13991;51.174;4.438;2022-09-13T10:12:31;18.75;;;4.97;;
26080;SDS011;13991;51.174;4.438;2022-09-13T10:15:09;15.23;;;5.13;;
26080;SDS011;13991;51.174;4.438;2022-09-13T10:18:31;11.45;;;4.60;;
26080;SDS011;13991;51.174;4.438;2022-09-13T10:20:58;14.38;;;4.85;;
26080;SDS011;13991;51.174;4.438;2022-09-13T10:23:30;13.55;;;3.55;;
26080;SDS011;13991;51.174;4.438;2022-09-13T10:29:20;7.05;;;3.60;;
26080;SDS011;13991;51.174;4.438;2022-09-13T10:31:27;12.23;;;4.20;;
26080;SDS011;13991;51.174;4.438;2022-09-13T10:36:28;10.60;;;3.85;;
26080;SDS011;13991;51.174;4.438;2022-09-13T10:38:57;18.00;;;3.65;;
26080;SDS011;13991;51.174;4.438;2022-09-13T10:41:26;8.15;;;3.35;;
26080;SDS011;13991;51.174;4.438;2022-09-13T10:43:57;11.13;;;3.20;;
26080;SDS011;13991;51.174;4.438;2022-09-13T10:46:25;8.98;;;2.88;;
26080;SDS011;13991;51.174;4.438;2022-09-13T10:48:54;9.10;;;2.80;;
26080;SDS011;13991;51.174;4.438;2022-09-13T10:54:08;7.50;;;2.90;;
26080;SDS011;13991;51.174;4.438;2022-09-13T10:57:08;4.57;;;2.33;;
26080;SDS011;13991;51.174;4.438;2022-09-13T10:59:56;21.38;;;2.85;;
26080;SDS011;13991;51.174;4.438;2022-09-13T11:06:08;7.38;;;2.10;;
26080;SDS011;13991;51.174;4.438;2022-09-13T11:30:33;7.82;;;3.33;;
26080;SDS011;13991;51.174;4.438;2022-09-13T11:33:26;13.23;;;3.80;;
26080;SDS011;13991;51.174;4.438;2022-09-13T11:44:31;14.38;;;5.43;;
26080;SDS011;13991;51.174;4.438;2022-09-13T11:52:46;17.67;;;6.10;;
26080;SDS011;13991;51.174;4.438;2022-09-13T11:55:36;16.15;;;6.28;;
26080;SDS011;13991;51.174;4.438;2022-09-13T11:58:20;15.85;;;7.93;;
26080;SDS011;13991;51.174;4.438;2022-09-13T12:00:59;20.83;;;7.90;;
26080;SDS011;13991;51.174;4.438;2022-09-13T12:06:27;15.38;;;7.15;;
26080;SDS011;13991;51.174;4.438;2022-09-13T12:09:02;13.70;;;7.65;;
26080;SDS011;13991;51.174;4.438;2022-09-13T12:11:41;15.30;;;6.68;;
26080;SDS011;13991;51.174;4.438;2022-09-13T12:14:12;13.00;;;7.03;;
26080;SDS011;13991;51.174;4.438;2022-09-13T12:16:51;18.30;;;8.18;;
26080;SDS011;13991;51.174;4.438;2022-09-13T12:21:48;13.90;;;7.13;;
26080;SDS011;13991;51.174;4.438;2022-09-13T12:27:03;15.52;;;7.13;;
26080;SDS011;13991;51.174;4.438;2022-09-13T12:32:57;17.75;;;7.38;;
26080;SDS011;13991;51.174;4.438;2022-09-13T12:35:25;13.10;;;6.28;;
26080;SDS011;13991;51.174;4.438;2022-09-13T13:00:20;25.50;;;10.13;;
26080;SDS011;13991;51.174;4.438;2022-09-13T13:02:58;15.82;;;8.07;;
26080;SDS011;13991;51.174;4.438;2022-09-13T13:05:33;25.95;;;7.53;;
26080;SDS011;13991;51.174;4.438;2022-09-13T13:08:03;16.80;;;7.38;;
26080;SDS011;13991;51.174;4.438;2022-09-13T13:11:10;16.35;;;5.88;;
26080;SDS011;13991;51.174;4.438;2022-09-13T13:13:59;15.98;;;6.95;;
26080;SDS011;13991;51.174;4.438;2022-09-13T13:16:36;13.32;;;6.50;;
26080;SDS011;13991;51.174;4.438;2022-09-13T13:19:27;19.38;;;5.68;;
26080;SDS011;13991;51.174;4.438;2022-09-13T13:21:55;13.88;;;5.70;;
26080;SDS011;13991;51.174;4.438;2022-09-13T13:24:45;18.55;;;8.80;;
26080;SDS011;13991;51.174;4.438;2022-09-13T13:33:11;15.23;;;4.68;;
26080;SDS011;13991;51.174;4.438;2022-09-13T13:35:56;21.83;;;6.35;;
26080;SDS011;13991;51.174;4.438;2022-09-13T13:38:44;14.38;;;6.20;;
26080;SDS011;13991;51.174;4.438;2022-09-13T13:43:56;14.55;;;5.35;;
26080;SDS011;13991;51.174;4.438;2022-09-13T13:46:24;18.60;;;7.35;;
26080;SDS011;13991;51.174;4.438;2022-09-13T13:48:51;19.25;;;8.73;;
26080;SDS011;13991;51.174;4.438;2022-09-13T13:51:24;25.20;;;8.90;;
26080;SDS011;13991;51.174;4.438;2022-09-13T13:54:04;24.83;;;9.60;;
26080;SDS011;13991;51.174;4.438;2022-09-13T13:56:54;24.23;;;9.10;;
26080;SDS011;13991;51.174;4.438;2022-09-13T13:59:23;25.77;;;9.88;;
26080;SDS011;13991;51.174;4.438;2022-09-13T14:01:53;19.13;;;10.23;;
26080;SDS011;13991;51.174;4.438;2022-09-13T14:07:07;34.10;;;12.15;;
26080;SDS011;13991;51.174;4.438;2022-09-13T14:15:49;28.98;;;13.75;;
26080;SDS011;13991;51.174;4.438;2022-09-13T14:21:28;24.58;;;12.70;;
26080;SDS011;13991;51.174;4.438;2022-09-13T14:24:08;20.55;;;11.82;;
26080;SDS011;13991;51.174;4.438;2022-09-13T14:26:48;27.25;;;12.20;;
26080;SDS011;13991;51.174;4.438;2022-09-13T14:29:19;18.83;;;11.93;;
26080;SDS011;13991;51.174;4.438;2022-09-13T14:31:52;24.83;;;13.38;;
26080;SDS011;13991;51.174;4.438;2022-09-13T14:34:22;31.40;;;12.63;;
26080;SDS011;13991;51.174;4.438;2022-09-13T14:36:57;28.63;;;12.88;;
26080;SDS011;13991;51.174;4.438;2022-09-13T14:39:27;26.58;;;12.18;;
26080;SDS011;13991;51.174;4.438;2022-09-13T14:42:13;18.55;;;10.95;;
26080;SDS011;13991;51.174;4.438;2022-09-13T14:44:46;21.83;;;10.50;;
26080;SDS011;13991;51.174;4.438;2022-09-13T14:49:38;20.02;;;9.10;;
26080;SDS011;13991;51.174;4.438;2022-09-13T14:52:09;17.33;;;9.30;;
26080;SDS011;13991;51.174;4.438;2022-09-13T14:54:52;20.42;;;9.32;;
26080;SDS011;13991;51.174;4.438;2022-09-13T14:57:26;19.50;;;8.85;;
26080;SDS011;13991;51.174;4.438;2022-09-13T15:00:05;24.83;;;9.13;;
26080;SDS011;13991;51.174;4.438;2022-09-13T15:02:47;21.92;;;10.02;;
26080;SDS011;13991;51.174;4.438;2022-09-13T15:05:16;16.90;;;9.35;;
26080;SDS011;13991;51.174;4.438;2022-09-13T15:07:43;23.20;;;10.32;;
26080;SDS011;13991;51.174;4.438;2022-09-13T15:13:14;21.88;;;10.73;;
26080;SDS011;13991;51.174;4.438;2022-09-13T15:15:41;26.17;;;11.48;;
26080;SDS011;13991;51.174;4.438;2022-09-13T15:21:00;36.90;;;11.75;;
26080;SDS011;13991;51.174;4.438;2022-09-13T15:23:28;26.25;;;10.90;;
26080;SDS011;13991;51.174;4.438;2022-09-13T15:26:12;20.60;;;10.60;;
26080;SDS011;13991;51.174;4.438;2022-09-13T15:31:33;29.85;;;10.88;;
26080;SDS011;13991;51.174;4.438;2022-09-13T15:34:18;22.50;;;10.63;;
26080;SDS011;13991;51.174;4.438;2022-09-13T15:37:10;22.83;;;10.88;;
26080;SDS011;13991;51.174;4.438;2022-09-13T15:39:47;24.00;;;10.82;;
26080;SDS011;13991;51.174;4.438;2022-09-13T15:42:33;21.17;;;10.80;;
26080;SDS011;13991;51.174;4.438;2022-09-13T15:44:59;24.02;;;11.07;;
26080;SDS011;13991;51.174;4.438;2022-09-13T15:47:25;15.88;;;9.63;;
26080;SDS011;13991;51.174;4.438;2022-09-13T15:49:51;18.03;;;11.43;;
26080;SDS011;13991;51.174;4.438;2022-09-13T15:52:17;21.23;;;10.90;;
26080;SDS011;13991;51.174;4.438;2022-09-13T15:54:46;23.75;;;11.70;;
26080;SDS011;13991;51.174;4.438;2022-09-13T15:59:45;15.15;;;10.75;;
26080;SDS011;13991;51.174;4.438;2022-09-13T16:02:20;17.37;;;11.37;;
26080;SDS011;13991;51.174;4.438;2022-09-13T16:04:53;25.38;;;11.38;;
26080;SDS011;13991;51.174;4.438;2022-09-13T16:07:19;21.42;;;10.93;;
26080;SDS011;13991;51.174;4.438;2022-09-13T16:09:46;19.73;;;10.65;;
26080;SDS011;13991;51.174;4.438;2022-09-13T16:12:12;20.42;;;9.52;;
26080;SDS011;13991;51.174;4.438;2022-09-13T16:14:39;17.23;;;8.60;;
26080;SDS011;13991;51.174;4.438;2022-09-13T16:17:19;14.27;;;8.60;;
26080;SDS011;13991;51.174;4.438;2022-09-13T16:19:48;18.27;;;8.07;;
26080;SDS011;13991;51.174;4.438;2022-09-13T16:22:14;15.32;;;6.55;;
26080;SDS011;13991;51.174;4.438;2022-09-13T16:24:40;17.73;;;7.47;;
26080;SDS011;13991;51.174;4.438;2022-09-13T16:27:06;16.58;;;7.07;;
26080;SDS011;13991;51.174;4.438;2022-09-13T16:29:33;16.63;;;7.20;;
26080;SDS011;13991;51.174;4.438;2022-09-13T16:32:06;18.42;;;7.35;;
26080;SDS011;13991;51.174;4.438;2022-09-13T16:34:35;10.43;;;6.32;;
26080;SDS011;13991;51.174;4.438;2022-09-13T16:37:06;12.18;;;7.18;;
26080;SDS011;13991;51.174;4.438;2022-09-13T16:39:34;16.20;;;6.90;;
26080;SDS011;13991;51.174;4.438;2022-09-13T16:41:59;13.93;;;6.93;;
26080;SDS011;13991;51.174;4.438;2022-09-13T16:44:25;14.35;;;7.25;;
26080;SDS011;13991;51.174;4.438;2022-09-13T16:46:52;11.68;;;6.22;;
26080;SDS011;13991;51.174;4.438;2022-09-13T16:49:18;16.30;;;6.80;;
26080;SDS011;13991;51.174;4.438;2022-09-13T16:51:44;16.52;;;6.75;;
26080;SDS011;13991;51.174;4.438;2022-09-13T16:54:09;14.38;;;7.35;;
26080;SDS011;13991;51.174;4.438;2022-09-13T16:56:35;15.83;;;6.10;;
26080;SDS011;13991;51.174;4.438;2022-09-13T16:59:01;10.93;;;5.90;;
26080;SDS011;13991;51.174;4.438;2022-09-13T17:01:27;10.13;;;5.53;;
26080;SDS011;13991;51.174;4.438;2022-09-13T17:03:53;9.70;;;4.77;;
26080;SDS011;13991;51.174;4.438;2022-09-13T17:06:21;12.63;;;5.13;;
26080;SDS011;13991;51.174;4.438;2022-09-13T17:08:55;8.73;;;4.40;;
26080;SDS011;13991;51.174;4.438;2022-09-13T17:11:25;10.07;;;3.67;;
26080;SDS011;13991;51.174;4.438;2022-09-13T17:13:53;9.37;;;3.60;;
26080;SDS011;13991;51.174;4.438;2022-09-13T17:18:57;13.60;;;2.87;;
26080;SDS011;13991;51.174;4.438;2022-09-13T17:21:27;11.17;;;2.90;;
26080;SDS011;13991;51.174;4.438;2022-09-13T17:23:53;8.90;;;2.37;;
26080;SDS011;13991;51.174;4.438;2022-09-13T17:26:21;19.17;;;3.60;;
26080;SDS011;13991;51.174;4.438;2022-09-13T17:28:54;8.07;;;2.47;;
26080;SDS011;13991;51.174;4.438;2022-09-13T17:31:23;14.27;;;3.00;;
26080;SDS011;13991;51.174;4.438;2022-09-13T17:33:51;19.80;;;3.13;;
26080;SDS011;13991;51.174;4.438;2022-09-13T17:36:17;7.40;;;2.87;;
26080;SDS011;13991;51.174;4.438;2022-09-13T17:38:43;12.93;;;2.73;;
26080;SDS011;13991;51.174;4.438;2022-09-13T17:41:10;11.57;;;2.83;;
26080;SDS011;13991;51.174;4.438;2022-09-13T17:43:43;22.57;;;2.87;;
26080;SDS011;13991;51.174;4.438;2022-09-13T17:46:13;10.10;;;3.00;;
26080;SDS011;13991;51.174;4.438;2022-09-13T17:48:47;14.13;;;2.80;;
26080;SDS011;13991;51.174;4.438;2022-09-13T17:51:15;11.37;;;2.80;;
26080;SDS011;13991;51.174;4.438;2022-09-13T17:53:51;21.43;;;4.83;;
26080;SDS011;13991;51.174;4.438;2022-09-13T17:56:22;10.03;;;2.20;;
26080;SDS011;13991;51.174;4.438;2022-09-13T17:58:52;19.03;;;2.53;;
26080;SDS011;13991;51.174;4.438;2022-09-13T18:01:17;11.93;;;2.63;;
26080;SDS011;13991;51.174;4.438;2022-09-13T18:03:52;10.90;;;3.07;;
26080;SDS011;13991;51.174;4.438;2022-09-13T18:06:18;12.63;;;2.27;;
26080;SDS011;13991;51.174;4.438;2022-09-13T18:08:47;10.53;;;2.83;;
26080;SDS011;13991;51.174;4.438;2022-09-13T18:11:13;10.80;;;2.57;;
26080;SDS011;13991;51.174;4.438;2022-09-13T18:13:43;5.67;;;2.53;;
26080;SDS011;13991;51.174;4.438;2022-09-13T18:16:10;15.73;;;4.07;;
26080;SDS011;13991;51.174;4.438;2022-09-13T18:18:41;8.73;;;2.87;;
26080;SDS011;13991;51.174;4.438;2022-09-13T18:21:10;13.13;;;3.27;;